sensor_id;sensor_type;location;lat;lon;timestamp;temperature;humidity
35381;DHT22;21486;51.916;8.378;2024-02-21T00:01:36;8.60;99.90
35381;DHT22;21486;51.916;8.378;2024-02-21T00:04:02;8.60;99.90
35381;DHT22;21486;51.916;8.378;2024-02-21T00:06:28;8.60;99.90
35381;DHT22;21486;51.916;8.378;2024-02-21T00:08:53;8.60;99.90
35381;DHT22;21486;51.916;8.378;2024-02-21T00:11:19;8.60;99.90
35381;DHT22;21486;51.916;8.378;2024-02-21T00:13:44;8.60;99.90
35381;DHT22;21486;51.916;8.378;2024-02-21T00:16:09;8.60;99.90
35381;DHT22;21486;51.916;8.378;2024-02-21T00:18:36;8.70;99.90
35381;DHT22;21486;51.916;8.378;2024-02-21T00:21:02;8.70;99.90
35381;DHT22;21486;51.916;8.378;2024-02-21T00:23:28;8.70;99.90
35381;DHT22;21486;51.916;8.378;2024-02-21T00:25:54;8.60;99.90
35381;DHT22;21486;51.916;8.378;2024-02-21T00:28:19;8.60;99.90
35381;DHT22;21486;51.916;8.378;2024-02-21T00:30:45;8.60;99.90
35381;DHT22;21486;51.916;8.378;2024-02-21T00:33:13;8.60;99.90
35381;DHT22;21486;51.916;8.378;2024-02-21T00:35:39;8.70;99.90
35381;DHT22;21486;51.916;8.378;2024-02-21T00:38:04;8.70;99.90
35381;DHT22;21486;51.916;8.378;2024-02-21T00:40:30;8.70;99.90
35381;DHT22;21486;51.916;8.378;2024-02-21T00:42:55;8.60;99.90
35381;DHT22;21486;51.916;8.378;2024-02-21T00:45:21;8.60;99.90
35381;DHT22;21486;51.916;8.378;2024-02-21T00:47:46;8.70;99.90
35381;DHT22;21486;51.916;8.378;2024-02-21T00:50:12;8.60;99.90
35381;DHT22;21486;51.916;8.378;2024-02-21T00:52:37;8.70;99.90
35381;DHT22;21486;51.916;8.378;2024-02-21T00:55:04;8.60;99.90
35381;DHT22;21486;51.916;8.378;2024-02-21T00:57:29;8.70;99.90
35381;DHT22;21486;51.916;8.378;2024-02-21T00:59:55;8.70;99.90
35381;DHT22;21486;51.916;8.378;2024-02-21T01:02:20;8.60;99.90
35381;DHT22;21486;51.916;8.378;2024-02-21T01:04:46;8.70;99.90
35381;DHT22;21486;51.916;8.378;2024-02-21T01:07:12;8.70;99.90
35381;DHT22;21486;51.916;8.378;2024-02-21T01:09:37;8.70;99.90
35381;DHT22;21486;51.916;8.378;2024-02-21T01:12:03;8.60;99.90
35381;DHT22;21486;51.916;8.378;2024-02-21T01:14:28;8.70;99.90
35381;DHT22;21486;51.916;8.378;2024-02-21T01:16:54;8.60;99.90
35381;DHT22;21486;51.916;8.378;2024-02-21T01:19:19;8.70;99.90
35381;DHT22;21486;51.916;8.378;2024-02-21T01:21:45;8.70;99.90
35381;DHT22;21486;51.916;8.378;2024-02-21T01:24:10;8.80;99.90
35381;DHT22;21486;51.916;8.378;2024-02-21T01:26:36;8.80;99.90
35381;DHT22;21486;51.916;8.378;2024-02-21T01:29:01;8.80;99.90
35381;DHT22;21486;51.916;8.378;2024-02-21T01:33:04;8.80;99.90
35381;DHT22;21486;51.916;8.378;2024-02-21T01:35:30;8.70;99.90
35381;DHT22;21486;51.916;8.378;2024-02-21T01:37:55;8.70;99.90
35381;DHT22;21486;51.916;8.378;2024-02-21T01:40:21;8.60;99.90
35381;DHT22;21486;51.916;8.378;2024-02-21T01:42:46;8.60;99.90
35381;DHT22;21486;51.916;8.378;2024-02-21T01:45:13;8.70;99.90
35381;DHT22;21486;51.916;8.378;2024-02-21T01:47:38;8.60;99.90
35381;DHT22;21486;51.916;8.378;2024-02-21T01:50:04;8.70;99.90
35381;DHT22;21486;51.916;8.378;2024-02-21T01:52:30;8.70;99.90
35381;DHT22;21486;51.916;8.378;2024-02-21T01:54:57;8.70;99.90
35381;DHT22;21486;51.916;8.378;2024-02-21T01:57:23;8.70;99.90
35381;DHT22;21486;51.916;8.378;2024-02-21T01:59:49;8.70;99.90
35381;DHT22;21486;51.916;8.378;2024-02-21T02:02:15;8.80;99.90
35381;DHT22;21486;51.916;8.378;2024-02-21T02:04:42;8.70;99.90
35381;DHT22;21486;51.916;8.378;2024-02-21T02:07:08;8.70;99.90
35381;DHT22;21486;51.916;8.378;2024-02-21T02:09:34;8.70;99.90
35381;DHT22;21486;51.916;8.378;2024-02-21T02:12:20;8.80;99.90
35381;DHT22;21486;51.916;8.378;2024-02-21T02:14:46;8.70;99.90
35381;DHT22;21486;51.916;8.378;2024-02-21T02:17:11;8.70;99.90
35381;DHT22;21486;51.916;8.378;2024-02-21T02:19:37;8.70;99.90
35381;DHT22;21486;51.916;8.378;2024-02-21T02:22:17;8.70;99.90
35381;DHT22;21486;51.916;8.378;2024-02-21T02:24:45;8.70;99.90
35381;DHT22;21486;51.916;8.378;2024-02-21T02:27:10;8.70;99.90
35381;DHT22;21486;51.916;8.378;2024-02-21T02:29:36;8.70;99.90
35381;DHT22;21486;51.916;8.378;2024-02-21T02:32:02;8.60;99.90
35381;DHT22;21486;51.916;8.378;2024-02-21T02:34:27;8.80;99.90
35381;DHT22;21486;51.916;8.378;2024-02-21T02:36:53;8.70;99.90
35381;DHT22;21486;51.916;8.378;2024-02-21T02:39:20;8.70;99.90
35381;DHT22;21486;51.916;8.378;2024-02-21T02:41:45;8.70;99.90
35381;DHT22;21486;51.916;8.378;2024-02-21T02:44:10;8.80;99.90
35381;DHT22;21486;51.916;8.378;2024-02-21T02:46:36;8.80;99.90
35381;DHT22;21486;51.916;8.378;2024-02-21T02:49:01;8.70;99.90
35381;DHT22;21486;51.916;8.378;2024-02-21T02:51:27;8.80;99.90
35381;DHT22;21486;51.916;8.378;2024-02-21T02:53:52;8.70;99.90
35381;DHT22;21486;51.916;8.378;2024-02-21T02:56:18;8.70;99.90
35381;DHT22;21486;51.916;8.378;2024-02-21T02:58:44;8.80;99.90
35381;DHT22;21486;51.916;8.378;2024-02-21T03:01:09;8.80;99.90
35381;DHT22;21486;51.916;8.378;2024-02-21T03:03:35;8.70;99.90
35381;DHT22;21486;51.916;8.378;2024-02-21T03:06:01;8.80;99.90
35381;DHT22;21486;51.916;8.378;2024-02-21T03:08:26;8.80;99.90
35381;DHT22;21486;51.916;8.378;2024-02-21T03:10:52;8.90;99.90
35381;DHT22;21486;51.916;8.378;2024-02-21T03:13:17;8.80;99.90
35381;DHT22;21486;51.916;8.378;2024-02-21T03:15:43;8.90;99.90
35381;DHT22;21486;51.916;8.378;2024-02-21T03:18:08;8.80;99.90
35381;DHT22;21486;51.916;8.378;2024-02-21T03:20:34;8.80;99.90
35381;DHT22;21486;51.916;8.378;2024-02-21T03:22:59;8.70;99.90
35381;DHT22;21486;51.916;8.378;2024-02-21T03:25:24;8.70;99.90
35381;DHT22;21486;51.916;8.378;2024-02-21T03:27:50;8.70;99.90
35381;DHT22;21486;51.916;8.378;2024-02-21T03:30:17;8.70;99.90
35381;DHT22;21486;51.916;8.378;2024-02-21T03:32:42;8.80;99.90
35381;DHT22;21486;51.916;8.378;2024-02-21T03:35:08;8.70;99.90
35381;DHT22;21486;51.916;8.378;2024-02-21T03:37:34;8.70;99.90
35381;DHT22;21486;51.916;8.378;2024-02-21T03:39:59;8.80;99.90
35381;DHT22;21486;51.916;8.378;2024-02-21T03:42:25;8.80;99.90
35381;DHT22;21486;51.916;8.378;2024-02-21T03:44:50;8.80;99.90
35381;DHT22;21486;51.916;8.378;2024-02-21T03:47:16;8.80;99.90
35381;DHT22;21486;51.916;8.378;2024-02-21T03:49:41;8.80;99.90
35381;DHT22;21486;51.916;8.378;2024-02-21T03:52:07;8.70;99.90
35381;DHT22;21486;51.916;8.378;2024-02-21T03:54:34;8.70;99.90
35381;DHT22;21486;51.916;8.378;2024-02-21T03:56:59;8.70;99.90
35381;DHT22;21486;51.916;8.378;2024-02-21T03:59:25;8.70;99.90
35381;DHT22;21486;51.916;8.378;2024-02-21T04:01:52;8.80;99.90
35381;DHT22;21486;51.916;8.378;2024-02-21T04:04:17;8.70;99.90
35381;DHT22;21486;51.916;8.378;2024-02-21T04:06:47;8.70;99.90
35381;DHT22;21486;51.916;8.378;2024-02-21T04:09:13;8.70;99.90
35381;DHT22;21486;51.916;8.378;2024-02-21T04:11:39;8.70;99.90
35381;DHT22;21486;51.916;8.378;2024-02-21T04:14:04;8.70;99.90
35381;DHT22;21486;51.916;8.378;2024-02-21T04:16:30;8.70;99.90
35381;DHT22;21486;51.916;8.378;2024-02-21T04:18:55;8.70;99.90
35381;DHT22;21486;51.916;8.378;2024-02-21T04:21:21;8.80;99.90
35381;DHT22;21486;51.916;8.378;2024-02-21T04:23:46;8.80;99.90
35381;DHT22;21486;51.916;8.378;2024-02-21T04:26:12;8.80;99.90
35381;DHT22;21486;51.916;8.378;2024-02-21T04:28:37;8.80;99.90
35381;DHT22;21486;51.916;8.378;2024-02-21T04:31:03;8.60;99.90
35381;DHT22;21486;51.916;8.378;2024-02-21T04:33:29;8.80;99.90
35381;DHT22;21486;51.916;8.378;2024-02-21T04:35:54;8.70;99.90
35381;DHT22;21486;51.916;8.378;2024-02-21T04:38:20;8.70;99.90
35381;DHT22;21486;51.916;8.378;2024-02-21T04:40:46;8.70;99.90
35381;DHT22;21486;51.916;8.378;2024-02-21T04:43:11;8.60;99.90
35381;DHT22;21486;51.916;8.378;2024-02-21T04:45:37;8.60;99.90
35381;DHT22;21486;51.916;8.378;2024-02-21T04:48:03;8.70;99.90
35381;DHT22;21486;51.916;8.378;2024-02-21T04:50:28;8.80;99.90
35381;DHT22;21486;51.916;8.378;2024-02-21T04:52:54;8.80;99.90
35381;DHT22;21486;51.916;8.378;2024-02-21T04:55:19;8.70;99.90
35381;DHT22;21486;51.916;8.378;2024-02-21T04:57:45;8.80;99.90
35381;DHT22;21486;51.916;8.378;2024-02-21T05:00:10;8.70;99.90
35381;DHT22;21486;51.916;8.378;2024-02-21T05:02:36;8.70;99.90
35381;DHT22;21486;51.916;8.378;2024-02-21T05:05:02;8.70;99.90
35381;DHT22;21486;51.916;8.378;2024-02-21T05:07:28;8.70;99.90
35381;DHT22;21486;51.916;8.378;2024-02-21T05:09:53;8.80;99.90
35381;DHT22;21486;51.916;8.378;2024-02-21T05:12:19;8.70;99.90
35381;DHT22;21486;51.916;8.378;2024-02-21T05:14:44;8.70;99.90
35381;DHT22;21486;51.916;8.378;2024-02-21T05:17:09;8.60;99.90
35381;DHT22;21486;51.916;8.378;2024-02-21T05:19:35;8.60;99.90
35381;DHT22;21486;51.916;8.378;2024-02-21T05:22:00;8.70;99.90
35381;DHT22;21486;51.916;8.378;2024-02-21T05:24:26;8.60;99.90
35381;DHT22;21486;51.916;8.378;2024-02-21T05:26:53;8.50;99.90
35381;DHT22;21486;51.916;8.378;2024-02-21T05:29:18;8.40;99.90
35381;DHT22;21486;51.916;8.378;2024-02-21T05:34:19;8.40;99.90
35381;DHT22;21486;51.916;8.378;2024-02-21T05:36:45;8.40;99.90
35381;DHT22;21486;51.916;8.378;2024-02-21T05:39:11;8.40;99.90
35381;DHT22;21486;51.916;8.378;2024-02-21T05:41:37;8.50;99.90
35381;DHT22;21486;51.916;8.378;2024-02-21T05:44:02;8.40;99.90
35381;DHT22;21486;51.916;8.378;2024-02-21T05:46:28;8.40;99.90
35381;DHT22;21486;51.916;8.378;2024-02-21T05:48:54;8.40;99.90
35381;DHT22;21486;51.916;8.378;2024-02-21T05:51:19;8.40;99.90
35381;DHT22;21486;51.916;8.378;2024-02-21T05:53:44;8.40;99.90
35381;DHT22;21486;51.916;8.378;2024-02-21T05:56:11;8.40;99.90
35381;DHT22;21486;51.916;8.378;2024-02-21T05:58:37;8.40;99.90
35381;DHT22;21486;51.916;8.378;2024-02-21T06:01:02;8.40;99.90
35381;DHT22;21486;51.916;8.378;2024-02-21T06:03:29;8.40;99.90
35381;DHT22;21486;51.916;8.378;2024-02-21T06:05:54;8.40;99.90
35381;DHT22;21486;51.916;8.378;2024-02-21T06:08:20;8.40;99.90
35381;DHT22;21486;51.916;8.378;2024-02-21T06:10:46;8.40;99.90
35381;DHT22;21486;51.916;8.378;2024-02-21T06:13:11;8.40;99.90
35381;DHT22;21486;51.916;8.378;2024-02-21T06:15:37;8.50;99.90
35381;DHT22;21486;51.916;8.378;2024-02-21T06:18:02;8.50;99.90
35381;DHT22;21486;51.916;8.378;2024-02-21T06:20:28;8.60;99.90
35381;DHT22;21486;51.916;8.378;2024-02-21T06:22:54;8.60;99.90
35381;DHT22;21486;51.916;8.378;2024-02-21T06:25:19;8.60;99.90
35381;DHT22;21486;51.916;8.378;2024-02-21T06:27:45;8.60;99.90
35381;DHT22;21486;51.916;8.378;2024-02-21T06:30:10;8.50;99.90
35381;DHT22;21486;51.916;8.378;2024-02-21T06:32:36;8.60;99.90
35381;DHT22;21486;51.916;8.378;2024-02-21T06:35:02;8.60;99.90
35381;DHT22;21486;51.916;8.378;2024-02-21T06:37:27;8.60;99.90
35381;DHT22;21486;51.916;8.378;2024-02-21T06:39:53;8.60;99.90
35381;DHT22;21486;51.916;8.378;2024-02-21T06:42:18;8.60;99.90
35381;DHT22;21486;51.916;8.378;2024-02-21T06:44:44;8.60;99.90
35381;DHT22;21486;51.916;8.378;2024-02-21T06:47:10;8.70;99.90
35381;DHT22;21486;51.916;8.378;2024-02-21T06:49:35;8.60;99.90
35381;DHT22;21486;51.916;8.378;2024-02-21T06:52:04;8.60;99.90
35381;DHT22;21486;51.916;8.378;2024-02-21T06:54:30;8.60;99.90
35381;DHT22;21486;51.916;8.378;2024-02-21T06:56:56;8.60;99.90
35381;DHT22;21486;51.916;8.378;2024-02-21T06:59:21;8.60;99.90
35381;DHT22;21486;51.916;8.378;2024-02-21T07:01:49;8.70;99.90
35381;DHT22;21486;51.916;8.378;2024-02-21T07:04:14;8.70;99.90
35381;DHT22;21486;51.916;8.378;2024-02-21T07:06:40;8.70;99.90
35381;DHT22;21486;51.916;8.378;2024-02-21T07:09:06;8.70;99.90
35381;DHT22;21486;51.916;8.378;2024-02-21T07:11:32;8.70;99.90
35381;DHT22;21486;51.916;8.378;2024-02-21T07:13:57;8.70;99.90
35381;DHT22;21486;51.916;8.378;2024-02-21T07:16:23;8.70;99.90
35381;DHT22;21486;51.916;8.378;2024-02-21T07:18:48;8.70;99.90
35381;DHT22;21486;51.916;8.378;2024-02-21T07:21:14;8.70;99.90
35381;DHT22;21486;51.916;8.378;2024-02-21T07:23:41;8.70;99.90
35381;DHT22;21486;51.916;8.378;2024-02-21T07:26:07;8.80;99.90
35381;DHT22;21486;51.916;8.378;2024-02-21T07:28:33;8.80;99.90
35381;DHT22;21486;51.916;8.378;2024-02-21T07:31:03;8.70;99.90
35381;DHT22;21486;51.916;8.378;2024-02-21T07:33:28;8.90;99.90
35381;DHT22;21486;51.916;8.378;2024-02-21T07:35:56;8.90;99.90
35381;DHT22;21486;51.916;8.378;2024-02-21T07:38:21;8.90;99.90
35381;DHT22;21486;51.916;8.378;2024-02-21T07:40:47;8.90;99.90
35381;DHT22;21486;51.916;8.378;2024-02-21T07:43:13;9.10;99.90
35381;DHT22;21486;51.916;8.378;2024-02-21T07:45:39;9.10;99.90
35381;DHT22;21486;51.916;8.378;2024-02-21T07:48:05;9.10;99.90
35381;DHT22;21486;51.916;8.378;2024-02-21T07:50:31;9.10;99.90
35381;DHT22;21486;51.916;8.378;2024-02-21T07:52:57;9.10;99.90
35381;DHT22;21486;51.916;8.378;2024-02-21T07:55:22;9.20;99.90
35381;DHT22;21486;51.916;8.378;2024-02-21T07:57:47;9.10;99.90
35381;DHT22;21486;51.916;8.378;2024-02-21T08:00:13;9.10;99.90
35381;DHT22;21486;51.916;8.378;2024-02-21T08:02:48;9.10;99.90
35381;DHT22;21486;51.916;8.378;2024-02-21T08:05:14;9.20;99.90
35381;DHT22;21486;51.916;8.378;2024-02-21T08:07:39;9.30;99.90
35381;DHT22;21486;51.916;8.378;2024-02-21T08:10:05;9.20;99.90
35381;DHT22;21486;51.916;8.378;2024-02-21T08:12:33;9.30;99.90
35381;DHT22;21486;51.916;8.378;2024-02-21T08:15:00;9.20;99.90
35381;DHT22;21486;51.916;8.378;2024-02-21T08:17:25;9.30;99.90
35381;DHT22;21486;51.916;8.378;2024-02-21T08:19:51;9.30;99.90
35381;DHT22;21486;51.916;8.378;2024-02-21T08:22:16;9.30;99.90
35381;DHT22;21486;51.916;8.378;2024-02-21T08:24:42;9.30;99.90
35381;DHT22;21486;51.916;8.378;2024-02-21T08:27:07;9.40;99.90
35381;DHT22;21486;51.916;8.378;2024-02-21T08:29:33;9.50;99.90
35381;DHT22;21486;51.916;8.378;2024-02-21T08:31:58;9.50;99.90
35381;DHT22;21486;51.916;8.378;2024-02-21T08:34:24;9.70;99.90
35381;DHT22;21486;51.916;8.378;2024-02-21T08:36:49;9.90;99.90
35381;DHT22;21486;51.916;8.378;2024-02-21T08:39:15;10.00;99.90
35381;DHT22;21486;51.916;8.378;2024-02-21T08:41:43;10.10;99.90
35381;DHT22;21486;51.916;8.378;2024-02-21T08:44:09;10.10;99.90
35381;DHT22;21486;51.916;8.378;2024-02-21T08:46:34;10.00;99.90
35381;DHT22;21486;51.916;8.378;2024-02-21T08:49:03;10.00;99.90
35381;DHT22;21486;51.916;8.378;2024-02-21T08:51:28;10.00;99.90
35381;DHT22;21486;51.916;8.378;2024-02-21T08:53:54;10.00;99.90
35381;DHT22;21486;51.916;8.378;2024-02-21T08:56:20;10.00;99.90
35381;DHT22;21486;51.916;8.378;2024-02-21T08:58:46;10.00;99.90
35381;DHT22;21486;51.916;8.378;2024-02-21T09:01:12;10.10;99.90
35381;DHT22;21486;51.916;8.378;2024-02-21T09:03:38;10.10;99.90
35381;DHT22;21486;51.916;8.378;2024-02-21T09:06:05;10.10;99.90
35381;DHT22;21486;51.916;8.378;2024-02-21T09:08:30;9.90;99.90
35381;DHT22;21486;51.916;8.378;2024-02-21T09:10:56;9.90;99.90
35381;DHT22;21486;51.916;8.378;2024-02-21T09:13:22;9.90;99.90
35381;DHT22;21486;51.916;8.378;2024-02-21T09:15:48;9.90;99.90
35381;DHT22;21486;51.916;8.378;2024-02-21T09:18:14;10.00;99.90
35381;DHT22;21486;51.916;8.378;2024-02-21T09:20:40;10.30;99.90
35381;DHT22;21486;51.916;8.378;2024-02-21T09:23:05;10.30;99.90
35381;DHT22;21486;51.916;8.378;2024-02-21T09:25:31;10.10;99.90
35381;DHT22;21486;51.916;8.378;2024-02-21T09:27:57;10.20;99.90
35381;DHT22;21486;51.916;8.378;2024-02-21T09:30:23;10.20;99.90
35381;DHT22;21486;51.916;8.378;2024-02-21T09:32:49;10.20;99.90
35381;DHT22;21486;51.916;8.378;2024-02-21T09:35:14;10.30;99.90
35381;DHT22;21486;51.916;8.378;2024-02-21T09:37:40;10.40;99.90
35381;DHT22;21486;51.916;8.378;2024-02-21T09:40:06;10.40;99.90
35381;DHT22;21486;51.916;8.378;2024-02-21T09:42:38;10.50;99.90
35381;DHT22;21486;51.916;8.378;2024-02-21T09:45:08;10.50;99.90
35381;DHT22;21486;51.916;8.378;2024-02-21T09:48:07;10.50;99.90
35381;DHT22;21486;51.916;8.378;2024-02-21T09:50:38;10.60;99.90
35381;DHT22;21486;51.916;8.378;2024-02-21T09:53:06;10.70;99.90
35381;DHT22;21486;51.916;8.378;2024-02-21T09:55:33;10.70;99.90
35381;DHT22;21486;51.916;8.378;2024-02-21T09:58:01;10.60;99.90
35381;DHT22;21486;51.916;8.378;2024-02-21T10:00:27;10.70;99.90
35381;DHT22;21486;51.916;8.378;2024-02-21T10:02:53;10.70;99.90
35381;DHT22;21486;51.916;8.378;2024-02-21T10:05:19;10.70;99.90
35381;DHT22;21486;51.916;8.378;2024-02-21T10:07:45;10.50;99.90
35381;DHT22;21486;51.916;8.378;2024-02-21T10:10:11;10.40;99.90
35381;DHT22;21486;51.916;8.378;2024-02-21T10:12:36;10.40;99.90
35381;DHT22;21486;51.916;8.378;2024-02-21T10:15:06;10.50;99.90
35381;DHT22;21486;51.916;8.378;2024-02-21T10:17:34;10.40;99.90
35381;DHT22;21486;51.916;8.378;2024-02-21T10:20:08;10.40;99.90
35381;DHT22;21486;51.916;8.378;2024-02-21T10:22:35;10.40;99.90
35381;DHT22;21486;51.916;8.378;2024-02-21T10:25:11;10.40;99.90
35381;DHT22;21486;51.916;8.378;2024-02-21T10:27:38;10.30;99.90
35381;DHT22;21486;51.916;8.378;2024-02-21T10:30:05;10.50;99.90
35381;DHT22;21486;51.916;8.378;2024-02-21T10:32:31;10.40;99.90
35381;DHT22;21486;51.916;8.378;2024-02-21T10:35:03;10.30;99.90
35381;DHT22;21486;51.916;8.378;2024-02-21T10:37:30;10.20;99.90
35381;DHT22;21486;51.916;8.378;2024-02-21T10:39:55;10.10;99.90
35381;DHT22;21486;51.916;8.378;2024-02-21T10:42:22;10.10;99.90
35381;DHT22;21486;51.916;8.378;2024-02-21T10:44:50;10.00;99.90
35381;DHT22;21486;51.916;8.378;2024-02-21T10:47:17;10.00;99.90
35381;DHT22;21486;51.916;8.378;2024-02-21T10:49:50;9.90;99.90
35381;DHT22;21486;51.916;8.378;2024-02-21T10:52:48;9.90;99.90
35381;DHT22;21486;51.916;8.378;2024-02-21T10:55:21;9.90;99.90
35381;DHT22;21486;51.916;8.378;2024-02-21T10:57:49;10.00;99.90
35381;DHT22;21486;51.916;8.378;2024-02-21T11:00:17;9.90;99.90
35381;DHT22;21486;51.916;8.378;2024-02-21T11:02:44;9.90;99.90
35381;DHT22;21486;51.916;8.378;2024-02-21T11:05:11;10.00;99.90
35381;DHT22;21486;51.916;8.378;2024-02-21T11:07:37;10.00;99.90
35381;DHT22;21486;51.916;8.378;2024-02-21T11:10:03;10.20;99.90
35381;DHT22;21486;51.916;8.378;2024-02-21T11:12:32;10.20;99.90
35381;DHT22;21486;51.916;8.378;2024-02-21T11:15:07;10.40;99.90
35381;DHT22;21486;51.916;8.378;2024-02-21T11:17:33;10.50;99.90
35381;DHT22;21486;51.916;8.378;2024-02-21T11:20:09;10.50;99.90
35381;DHT22;21486;51.916;8.378;2024-02-21T11:22:41;10.40;99.90
35381;DHT22;21486;51.916;8.378;2024-02-21T11:25:08;10.50;99.90
35381;DHT22;21486;51.916;8.378;2024-02-21T11:27:36;10.40;99.90
35381;DHT22;21486;51.916;8.378;2024-02-21T11:30:04;10.40;99.90
35381;DHT22;21486;51.916;8.378;2024-02-21T11:32:31;10.30;99.90
35381;DHT22;21486;51.916;8.378;2024-02-21T11:34:57;10.30;99.90
35381;DHT22;21486;51.916;8.378;2024-02-21T11:37:27;10.20;99.90
35381;DHT22;21486;51.916;8.378;2024-02-21T11:39:57;10.30;99.90
35381;DHT22;21486;51.916;8.378;2024-02-21T11:42:25;10.20;99.90
35381;DHT22;21486;51.916;8.378;2024-02-21T11:44:50;10.20;99.90
35381;DHT22;21486;51.916;8.378;2024-02-21T11:47:16;10.20;99.90
35381;DHT22;21486;51.916;8.378;2024-02-21T11:49:46;10.20;99.90
35381;DHT22;21486;51.916;8.378;2024-02-21T11:52:14;10.10;99.90
35381;DHT22;21486;51.916;8.378;2024-02-21T11:54:41;10.10;99.90
35381;DHT22;21486;51.916;8.378;2024-02-21T11:57:07;10.10;99.90
35381;DHT22;21486;51.916;8.378;2024-02-21T11:59:33;10.10;99.90
35381;DHT22;21486;51.916;8.378;2024-02-21T12:02:02;10.10;99.90
35381;DHT22;21486;51.916;8.378;2024-02-21T12:04:29;10.10;99.90
35381;DHT22;21486;51.916;8.378;2024-02-21T12:06:57;10.20;99.90
35381;DHT22;21486;51.916;8.378;2024-02-21T12:09:23;10.10;99.90
35381;DHT22;21486;51.916;8.378;2024-02-21T12:12:01;10.00;99.90
35381;DHT22;21486;51.916;8.378;2024-02-21T12:14:28;9.90;99.90
35381;DHT22;21486;51.916;8.378;2024-02-21T12:16:55;10.00;99.90
35381;DHT22;21486;51.916;8.378;2024-02-21T12:19:20;10.00;99.90
35381;DHT22;21486;51.916;8.378;2024-02-21T12:21:48;9.90;99.90
35381;DHT22;21486;51.916;8.378;2024-02-21T12:24:22;9.90;99.90
35381;DHT22;21486;51.916;8.378;2024-02-21T12:26:49;9.90;99.90
35381;DHT22;21486;51.916;8.378;2024-02-21T12:29:14;9.90;99.90
35381;DHT22;21486;51.916;8.378;2024-02-21T12:31:40;10.00;99.90
35381;DHT22;21486;51.916;8.378;2024-02-21T12:34:06;9.90;99.90
35381;DHT22;21486;51.916;8.378;2024-02-21T12:36:32;9.90;99.90
35381;DHT22;21486;51.916;8.378;2024-02-21T12:38:58;10.10;99.90
35381;DHT22;21486;51.916;8.378;2024-02-21T12:41:24;10.20;99.90
35381;DHT22;21486;51.916;8.378;2024-02-21T12:43:51;10.30;99.90
35381;DHT22;21486;51.916;8.378;2024-02-21T12:46:16;10.50;99.90
35381;DHT22;21486;51.916;8.378;2024-02-21T12:48:42;10.60;99.90
35381;DHT22;21486;51.916;8.378;2024-02-21T12:51:08;10.40;99.90
35381;DHT22;21486;51.916;8.378;2024-02-21T12:53:33;10.50;99.90
35381;DHT22;21486;51.916;8.378;2024-02-21T12:55:59;10.60;99.90
35381;DHT22;21486;51.916;8.378;2024-02-21T12:58:25;10.60;99.90
35381;DHT22;21486;51.916;8.378;2024-02-21T13:00:50;10.50;99.90
35381;DHT22;21486;51.916;8.378;2024-02-21T13:03:15;10.20;99.90
35381;DHT22;21486;51.916;8.378;2024-02-21T13:05:41;10.00;99.90
35381;DHT22;21486;51.916;8.378;2024-02-21T13:08:07;10.10;99.90
35381;DHT22;21486;51.916;8.378;2024-02-21T13:10:34;10.20;99.90
35381;DHT22;21486;51.916;8.378;2024-02-21T13:13:01;10.20;99.90
35381;DHT22;21486;51.916;8.378;2024-02-21T13:15:27;10.10;99.90
35381;DHT22;21486;51.916;8.378;2024-02-21T13:17:53;10.10;99.90
35381;DHT22;21486;51.916;8.378;2024-02-21T13:20:20;9.90;99.90
35381;DHT22;21486;51.916;8.378;2024-02-21T13:22:46;10.00;99.90
35381;DHT22;21486;51.916;8.378;2024-02-21T13:25:12;10.10;99.90
35381;DHT22;21486;51.916;8.378;2024-02-21T13:27:40;10.20;99.90
35381;DHT22;21486;51.916;8.378;2024-02-21T13:30:06;10.00;99.90
35381;DHT22;21486;51.916;8.378;2024-02-21T13:32:34;10.00;99.90
35381;DHT22;21486;51.916;8.378;2024-02-21T13:34:59;10.00;99.90
35381;DHT22;21486;51.916;8.378;2024-02-21T13:37:26;10.00;99.90
35381;DHT22;21486;51.916;8.378;2024-02-21T13:39:52;9.90;99.90
35381;DHT22;21486;51.916;8.378;2024-02-21T13:42:19;9.80;99.90
35381;DHT22;21486;51.916;8.378;2024-02-21T13:44:44;9.90;99.90
35381;DHT22;21486;51.916;8.378;2024-02-21T13:47:11;9.90;99.90
35381;DHT22;21486;51.916;8.378;2024-02-21T13:49:38;10.00;99.90
35381;DHT22;21486;51.916;8.378;2024-02-21T13:52:04;9.90;99.90
35381;DHT22;21486;51.916;8.378;2024-02-21T13:54:30;9.90;99.90
35381;DHT22;21486;51.916;8.378;2024-02-21T13:56:55;9.90;99.90
35381;DHT22;21486;51.916;8.378;2024-02-21T13:59:21;10.00;99.90
35381;DHT22;21486;51.916;8.378;2024-02-21T14:01:46;9.90;99.90
35381;DHT22;21486;51.916;8.378;2024-02-21T14:04:12;10.00;99.90
35381;DHT22;21486;51.916;8.378;2024-02-21T14:06:37;10.10;99.90
35381;DHT22;21486;51.916;8.378;2024-02-21T14:09:11;10.10;99.90
35381;DHT22;21486;51.916;8.378;2024-02-21T14:11:37;10.10;99.90
35381;DHT22;21486;51.916;8.378;2024-02-21T14:14:04;10.00;99.90
35381;DHT22;21486;51.916;8.378;2024-02-21T14:16:30;10.20;99.90
35381;DHT22;21486;51.916;8.378;2024-02-21T14:18:55;10.20;99.90
35381;DHT22;21486;51.916;8.378;2024-02-21T14:21:21;10.30;99.90
35381;DHT22;21486;51.916;8.378;2024-02-21T14:23:47;10.30;99.90
35381;DHT22;21486;51.916;8.378;2024-02-21T14:26:13;10.30;99.90
35381;DHT22;21486;51.916;8.378;2024-02-21T14:28:39;10.20;99.90
35381;DHT22;21486;51.916;8.378;2024-02-21T14:31:05;10.30;99.90
35381;DHT22;21486;51.916;8.378;2024-02-21T14:33:34;10.40;99.90
35381;DHT22;21486;51.916;8.378;2024-02-21T14:36:00;10.30;99.90
35381;DHT22;21486;51.916;8.378;2024-02-21T14:38:26;10.40;99.90
35381;DHT22;21486;51.916;8.378;2024-02-21T14:40:52;10.40;99.90
35381;DHT22;21486;51.916;8.378;2024-02-21T14:43:17;10.40;99.90
35381;DHT22;21486;51.916;8.378;2024-02-21T14:45:44;10.40;99.90
35381;DHT22;21486;51.916;8.378;2024-02-21T14:48:09;10.30;99.90
35381;DHT22;21486;51.916;8.378;2024-02-21T14:50:35;10.40;99.90
35381;DHT22;21486;51.916;8.378;2024-02-21T14:53:00;10.30;99.90
35381;DHT22;21486;51.916;8.378;2024-02-21T14:55:25;10.20;99.90
35381;DHT22;21486;51.916;8.378;2024-02-21T14:57:51;10.20;99.90
35381;DHT22;21486;51.916;8.378;2024-02-21T15:00:17;10.20;99.90
35381;DHT22;21486;51.916;8.378;2024-02-21T15:02:42;10.20;99.90
35381;DHT22;21486;51.916;8.378;2024-02-21T15:05:09;10.20;99.90
35381;DHT22;21486;51.916;8.378;2024-02-21T15:07:34;10.20;99.90
35381;DHT22;21486;51.916;8.378;2024-02-21T15:10:00;10.10;99.90
35381;DHT22;21486;51.916;8.378;2024-02-21T15:12:25;10.20;99.90
35381;DHT22;21486;51.916;8.378;2024-02-21T15:14:51;10.20;99.90
35381;DHT22;21486;51.916;8.378;2024-02-21T15:17:17;10.20;99.90
35381;DHT22;21486;51.916;8.378;2024-02-21T15:19:44;10.20;99.90
35381;DHT22;21486;51.916;8.378;2024-02-21T15:22:12;10.30;99.90
35381;DHT22;21486;51.916;8.378;2024-02-21T15:24:42;10.20;99.90
35381;DHT22;21486;51.916;8.378;2024-02-21T15:27:08;10.30;99.90
35381;DHT22;21486;51.916;8.378;2024-02-21T15:29:34;10.30;99.90
35381;DHT22;21486;51.916;8.378;2024-02-21T15:32:01;10.20;99.90
35381;DHT22;21486;51.916;8.378;2024-02-21T15:34:27;10.20;99.90
35381;DHT22;21486;51.916;8.378;2024-02-21T15:36:53;10.20;99.90
35381;DHT22;21486;51.916;8.378;2024-02-21T15:39:18;10.20;99.90